sensor_id;sensor_type;location;lat;lon;timestamp;temperature;humidity
27759;DHT22;15148;48.972;12.794;2023-05-02T00:03:11;11.20;99.90
27759;DHT22;15148;48.972;12.794;2023-05-02T00:08:13;11.20;99.90
27759;DHT22;15148;48.972;12.794;2023-05-02T00:13:15;11.20;99.90
27759;DHT22;15148;48.972;12.794;2023-05-02T00:18:16;11.10;99.90
27759;DHT22;15148;48.972;12.794;2023-05-02T00:23:18;10.90;99.90
27759;DHT22;15148;48.972;12.794;2023-05-02T00:28:20;10.80;99.90
27759;DHT22;15148;48.972;12.794;2023-05-02T00:33:22;10.80;99.90
27759;DHT22;15148;48.972;12.794;2023-05-02T00:38:24;10.20;99.90
27759;DHT22;15148;48.972;12.794;2023-05-02T00:43:29;10.10;99.90
27759;DHT22;15148;48.972;12.794;2023-05-02T00:48:31;10.10;99.90
27759;DHT22;15148;48.972;12.794;2023-05-02T00:53:34;10.00;99.90
27759;DHT22;15148;48.972;12.794;2023-05-02T00:58:37;9.90;99.90
27759;DHT22;15148;48.972;12.794;2023-05-02T01:09:03;9.80;99.90
27759;DHT22;15148;48.972;12.794;2023-05-02T01:14:10;9.50;99.90
27759;DHT22;15148;48.972;12.794;2023-05-02T01:19:25;9.40;99.90
27759;DHT22;15148;48.972;12.794;2023-05-02T01:24:37;9.30;99.90
27759;DHT22;15148;48.972;12.794;2023-05-02T01:29:41;9.20;99.90
27759;DHT22;15148;48.972;12.794;2023-05-02T01:34:45;8.90;99.90
27759;DHT22;15148;48.972;12.794;2023-05-02T01:39:48;8.70;99.90
27759;DHT22;15148;48.972;12.794;2023-05-02T01:44:53;8.70;99.90
27759;DHT22;15148;48.972;12.794;2023-05-02T01:49:57;8.80;99.90
27759;DHT22;15148;48.972;12.794;2023-05-02T01:55:00;8.70;99.90
27759;DHT22;15148;48.972;12.794;2023-05-02T02:00:04;8.70;99.90
27759;DHT22;15148;48.972;12.794;2023-05-02T02:05:13;8.20;99.90
27759;DHT22;15148;48.972;12.794;2023-05-02T02:10:17;8.10;99.90
27759;DHT22;15148;48.972;12.794;2023-05-02T02:15:26;8.10;99.90
27759;DHT22;15148;48.972;12.794;2023-05-02T02:20:29;8.10;99.90
27759;DHT22;15148;48.972;12.794;2023-05-02T02:25:33;8.20;99.90
27759;DHT22;15148;48.972;12.794;2023-05-02T02:30:35;8.20;99.90
27759;DHT22;15148;48.972;12.794;2023-05-02T02:35:43;8.20;99.90
27759;DHT22;15148;48.972;12.794;2023-05-02T02:40:54;8.20;99.90
27759;DHT22;15148;48.972;12.794;2023-05-02T02:51:35;8.20;99.90
27759;DHT22;15148;48.972;12.794;2023-05-02T02:56:40;8.00;99.90
27759;DHT22;15148;48.972;12.794;2023-05-02T03:01:47;8.10;99.90
27759;DHT22;15148;48.972;12.794;2023-05-02T03:06:53;8.00;99.90
27759;DHT22;15148;48.972;12.794;2023-05-02T03:11:55;8.10;99.90
27759;DHT22;15148;48.972;12.794;2023-05-02T03:16:59;8.10;99.90
27759;DHT22;15148;48.972;12.794;2023-05-02T03:22:02;8.00;99.90
27759;DHT22;15148;48.972;12.794;2023-05-02T03:27:05;8.00;99.90
27759;DHT22;15148;48.972;12.794;2023-05-02T03:32:13;8.10;99.90
27759;DHT22;15148;48.972;12.794;2023-05-02T03:37:17;8.00;99.90
27759;DHT22;15148;48.972;12.794;2023-05-02T03:42:20;7.90;99.90
27759;DHT22;15148;48.972;12.794;2023-05-02T03:47:22;7.80;99.90
27759;DHT22;15148;48.972;12.794;2023-05-02T03:52:24;7.90;99.90
27759;DHT22;15148;48.972;12.794;2023-05-02T03:57:31;7.80;99.90
27759;DHT22;15148;48.972;12.794;2023-05-02T04:02:33;7.70;99.90
27759;DHT22;15148;48.972;12.794;2023-05-02T04:07:35;7.70;99.90
27759;DHT22;15148;48.972;12.794;2023-05-02T04:12:40;7.80;99.90
27759;DHT22;15148;48.972;12.794;2023-05-02T04:17:42;7.70;99.90
27759;DHT22;15148;48.972;12.794;2023-05-02T04:22:46;7.80;99.90
27759;DHT22;15148;48.972;12.794;2023-05-02T04:27:49;7.80;99.90
27759;DHT22;15148;48.972;12.794;2023-05-02T04:32:54;7.90;99.90
27759;DHT22;15148;48.972;12.794;2023-05-02T04:37:58;7.70;99.90
27759;DHT22;15148;48.972;12.794;2023-05-02T04:43:01;7.60;99.90
27759;DHT22;15148;48.972;12.794;2023-05-02T04:48:10;7.80;99.90
27759;DHT22;15148;48.972;12.794;2023-05-02T04:53:13;8.00;99.90
27759;DHT22;15148;48.972;12.794;2023-05-02T04:58:15;8.10;99.90
27759;DHT22;15148;48.972;12.794;2023-05-02T05:03:20;8.30;99.90
27759;DHT22;15148;48.972;12.794;2023-05-02T05:08:22;8.40;99.90
27759;DHT22;15148;48.972;12.794;2023-05-02T05:13:24;8.70;99.90
27759;DHT22;15148;48.972;12.794;2023-05-02T05:18:27;8.90;99.90
27759;DHT22;15148;48.972;12.794;2023-05-02T05:23:29;9.30;99.90
27759;DHT22;15148;48.972;12.794;2023-05-02T05:28:31;9.60;99.90
27759;DHT22;15148;48.972;12.794;2023-05-02T05:33:33;10.40;99.90
27759;DHT22;15148;48.972;12.794;2023-05-02T05:38:37;11.10;99.90
27759;DHT22;15148;48.972;12.794;2023-05-02T05:43:40;11.40;99.90
27759;DHT22;15148;48.972;12.794;2023-05-02T05:48:42;11.40;99.90
27759;DHT22;15148;48.972;12.794;2023-05-02T05:53:44;11.40;99.90
27759;DHT22;15148;48.972;12.794;2023-05-02T05:58:47;11.10;99.90
27759;DHT22;15148;48.972;12.794;2023-05-02T06:03:50;11.10;99.90
27759;DHT22;15148;48.972;12.794;2023-05-02T06:08:53;11.20;99.90
27759;DHT22;15148;48.972;12.794;2023-05-02T06:13:55;11.30;99.90
27759;DHT22;15148;48.972;12.794;2023-05-02T06:18:57;11.30;99.90
27759;DHT22;15148;48.972;12.794;2023-05-02T06:23:59;11.20;99.90
27759;DHT22;15148;48.972;12.794;2023-05-02T06:29:01;11.20;99.90
27759;DHT22;15148;48.972;12.794;2023-05-02T06:34:03;11.20;99.90
27759;DHT22;15148;48.972;12.794;2023-05-02T06:39:05;11.10;99.90
27759;DHT22;15148;48.972;12.794;2023-05-02T06:44:06;11.10;99.90
27759;DHT22;15148;48.972;12.794;2023-05-02T06:49:08;11.00;99.90
27759;DHT22;15148;48.972;12.794;2023-05-02T06:54:10;10.50;99.90
27759;DHT22;15148;48.972;12.794;2023-05-02T06:59:12;10.50;99.90
27759;DHT22;15148;48.972;12.794;2023-05-02T07:04:14;10.60;99.90
27759;DHT22;15148;48.972;12.794;2023-05-02T07:09:16;10.70;99.90
27759;DHT22;15148;48.972;12.794;2023-05-02T07:14:18;10.50;99.90
27759;DHT22;15148;48.972;12.794;2023-05-02T07:19:20;10.50;99.90
27759;DHT22;15148;48.972;12.794;2023-05-02T07:24:21;10.50;99.90
27759;DHT22;15148;48.972;12.794;2023-05-02T07:29:23;10.40;99.90
27759;DHT22;15148;48.972;12.794;2023-05-02T07:34:25;10.50;99.90
27759;DHT22;15148;48.972;12.794;2023-05-02T07:39:27;10.70;99.90
27759;DHT22;15148;48.972;12.794;2023-05-02T07:44:30;10.80;99.90
27759;DHT22;15148;48.972;12.794;2023-05-02T07:49:32;10.90;99.90
27759;DHT22;15148;48.972;12.794;2023-05-02T07:54:34;10.90;99.90
27759;DHT22;15148;48.972;12.794;2023-05-02T07:59:37;11.10;99.90
27759;DHT22;15148;48.972;12.794;2023-05-02T08:04:39;11.20;99.90
27759;DHT22;15148;48.972;12.794;2023-05-02T08:09:42;11.30;99.90
27759;DHT22;15148;48.972;12.794;2023-05-02T08:14:43;11.20;99.90
27759;DHT22;15148;48.972;12.794;2023-05-02T08:19:45;11.20;99.90
27759;DHT22;15148;48.972;12.794;2023-05-02T08:24:47;11.20;99.90
27759;DHT22;15148;48.972;12.794;2023-05-02T08:29:49;10.70;99.90
27759;DHT22;15148;48.972;12.794;2023-05-02T08:34:54;10.50;99.90
27759;DHT22;15148;48.972;12.794;2023-05-02T08:39:56;10.40;99.90
27759;DHT22;15148;48.972;12.794;2023-05-02T08:44:58;10.40;99.90
27759;DHT22;15148;48.972;12.794;2023-05-02T08:50:02;10.40;99.90
27759;DHT22;15148;48.972;12.794;2023-05-02T08:55:08;10.60;99.90
27759;DHT22;15148;48.972;12.794;2023-05-02T09:00:10;10.80;99.90
27759;DHT22;15148;48.972;12.794;2023-05-02T09:05:18;11.10;99.90
27759;DHT22;15148;48.972;12.794;2023-05-02T09:10:20;11.30;99.90
27759;DHT22;15148;48.972;12.794;2023-05-02T09:15:22;11.60;99.90
27759;DHT22;15148;48.972;12.794;2023-05-02T09:20:24;11.80;99.90
27759;DHT22;15148;48.972;12.794;2023-05-02T09:25:35;11.80;99.90
27759;DHT22;15148;48.972;12.794;2023-05-02T09:30:38;11.90;99.90
27759;DHT22;15148;48.972;12.794;2023-05-02T09:35:52;11.90;99.90
27759;DHT22;15148;48.972;12.794;2023-05-02T09:40:55;11.90;99.90
27759;DHT22;15148;48.972;12.794;2023-05-02T09:51:16;12.40;99.90
27759;DHT22;15148;48.972;12.794;2023-05-02T09:56:18;12.50;99.90
27759;DHT22;15148;48.972;12.794;2023-05-02T10:01:20;12.80;99.90
27759;DHT22;15148;48.972;12.794;2023-05-02T10:06:22;12.90;99.90
27759;DHT22;15148;48.972;12.794;2023-05-02T10:11:24;13.00;99.90
27759;DHT22;15148;48.972;12.794;2023-05-02T10:16:28;12.90;99.90
27759;DHT22;15148;48.972;12.794;2023-05-02T10:21:31;13.00;99.90
27759;DHT22;15148;48.972;12.794;2023-05-02T10:26:34;13.20;99.90
27759;DHT22;15148;48.972;12.794;2023-05-02T10:31:36;13.30;99.90
27759;DHT22;15148;48.972;12.794;2023-05-02T10:36:40;13.40;99.90
27759;DHT22;15148;48.972;12.794;2023-05-02T10:41:42;13.60;99.90
27759;DHT22;15148;48.972;12.794;2023-05-02T10:46:45;13.80;99.90
27759;DHT22;15148;48.972;12.794;2023-05-02T10:51:47;14.00;99.90
27759;DHT22;15148;48.972;12.794;2023-05-02T11:07:36;14.30;99.90
27759;DHT22;15148;48.972;12.794;2023-05-02T11:12:51;14.40;99.90
27759;DHT22;15148;48.972;12.794;2023-05-02T11:33:39;15.20;99.90
27759;DHT22;15148;48.972;12.794;2023-05-02T11:38:41;15.30;99.90
27759;DHT22;15148;48.972;12.794;2023-05-02T11:43:43;15.50;99.90
27759;DHT22;15148;48.972;12.794;2023-05-02T11:48:45;15.50;99.90
27759;DHT22;15148;48.972;12.794;2023-05-02T11:53:46;15.60;99.90
27759;DHT22;15148;48.972;12.794;2023-05-02T11:58:57;15.70;99.90
27759;DHT22;15148;48.972;12.794;2023-05-02T12:04:04;15.90;99.90
27759;DHT22;15148;48.972;12.794;2023-05-02T12:09:13;16.10;99.90
27759;DHT22;15148;48.972;12.794;2023-05-02T12:14:34;16.30;99.90
27759;DHT22;15148;48.972;12.794;2023-05-02T12:19:36;16.40;99.90
27759;DHT22;15148;48.972;12.794;2023-05-02T12:24:39;16.70;99.90
27759;DHT22;15148;48.972;12.794;2023-05-02T12:29:43;17.00;99.90
27759;DHT22;15148;48.972;12.794;2023-05-02T12:34:45;17.10;99.90
27759;DHT22;15148;48.972;12.794;2023-05-02T12:39:47;17.10;99.90
27759;DHT22;15148;48.972;12.794;2023-05-02T12:44:50;17.20;99.90
27759;DHT22;15148;48.972;12.794;2023-05-02T12:49:57;17.20;99.90
27759;DHT22;15148;48.972;12.794;2023-05-02T12:55:19;17.20;99.90
27759;DHT22;15148;48.972;12.794;2023-05-02T13:00:21;16.90;99.90
27759;DHT22;15148;48.972;12.794;2023-05-02T13:05:23;16.70;99.90
27759;DHT22;15148;48.972;12.794;2023-05-02T13:10:25;16.70;99.90
27759;DHT22;15148;48.972;12.794;2023-05-02T13:15:28;16.80;99.90
27759;DHT22;15148;48.972;12.794;2023-05-02T13:20:30;17.10;99.90
27759;DHT22;15148;48.972;12.794;2023-05-02T13:25:32;17.40;99.90
27759;DHT22;15148;48.972;12.794;2023-05-02T13:30:33;17.60;99.90
27759;DHT22;15148;48.972;12.794;2023-05-02T13:35:36;17.80;99.90
27759;DHT22;15148;48.972;12.794;2023-05-02T13:40:38;17.80;99.90
27759;DHT22;15148;48.972;12.794;2023-05-02T13:45:40;17.60;99.90
27759;DHT22;15148;48.972;12.794;2023-05-02T13:50:42;17.50;99.90
27759;DHT22;15148;48.972;12.794;2023-05-02T13:55:44;17.50;99.90
27759;DHT22;15148;48.972;12.794;2023-05-02T14:00:46;17.60;99.90
27759;DHT22;15148;48.972;12.794;2023-05-02T14:05:48;17.40;99.90
27759;DHT22;15148;48.972;12.794;2023-05-02T14:10:49;17.40;99.90
27759;DHT22;15148;48.972;12.794;2023-05-02T14:15:52;17.40;99.90
27759;DHT22;15148;48.972;12.794;2023-05-02T14:20:54;17.20;99.90
27759;DHT22;15148;48.972;12.794;2023-05-02T14:26:00;17.00;99.90
27759;DHT22;15148;48.972;12.794;2023-05-02T14:31:03;17.00;99.90
27759;DHT22;15148;48.972;12.794;2023-05-02T14:36:05;17.00;99.90
27759;DHT22;15148;48.972;12.794;2023-05-02T14:41:07;16.90;99.90
27759;DHT22;15148;48.972;12.794;2023-05-02T14:46:09;16.80;99.90
27759;DHT22;15148;48.972;12.794;2023-05-02T14:51:10;16.70;99.90
27759;DHT22;15148;48.972;12.794;2023-05-02T14:56:13;16.80;99.90
27759;DHT22;15148;48.972;12.794;2023-05-02T15:01:17;16.70;99.90
27759;DHT22;15148;48.972;12.794;2023-05-02T15:06:19;16.60;99.90
27759;DHT22;15148;48.972;12.794;2023-05-02T15:11:21;16.70;99.90
27759;DHT22;15148;48.972;12.794;2023-05-02T15:16:23;16.70;99.90
27759;DHT22;15148;48.972;12.794;2023-05-02T15:21:25;16.70;99.90
27759;DHT22;15148;48.972;12.794;2023-05-02T15:26:27;16.80;99.90
27759;DHT22;15148;48.972;12.794;2023-05-02T15:31:29;16.80;99.90
27759;DHT22;15148;48.972;12.794;2023-05-02T15:36:31;16.70;99.90
27759;DHT22;15148;48.972;12.794;2023-05-02T15:41:33;16.60;99.90
27759;DHT22;15148;48.972;12.794;2023-05-02T15:46:35;16.60;99.90
27759;DHT22;15148;48.972;12.794;2023-05-02T15:51:37;16.40;99.90
27759;DHT22;15148;48.972;12.794;2023-05-02T15:56:39;16.30;99.90
27759;DHT22;15148;48.972;12.794;2023-05-02T16:01:41;16.00;99.90
27759;DHT22;15148;48.972;12.794;2023-05-02T16:06:43;15.90;99.90
27759;DHT22;15148;48.972;12.794;2023-05-02T16:11:45;15.80;99.90
27759;DHT22;15148;48.972;12.794;2023-05-02T16:16:46;15.80;99.90
27759;DHT22;15148;48.972;12.794;2023-05-02T16:21:48;15.80;99.90
27759;DHT22;15148;48.972;12.794;2023-05-02T16:26:50;15.90;99.90
27759;DHT22;15148;48.972;12.794;2023-05-02T16:31:52;15.80;99.90
27759;DHT22;15148;48.972;12.794;2023-05-02T16:36:54;15.70;99.90
27759;DHT22;15148;48.972;12.794;2023-05-02T16:41:56;15.60;99.90
27759;DHT22;15148;48.972;12.794;2023-05-02T16:46:58;15.50;99.90
27759;DHT22;15148;48.972;12.794;2023-05-02T16:51:59;15.50;99.90
27759;DHT22;15148;48.972;12.794;2023-05-02T16:57:01;15.50;99.90
27759;DHT22;15148;48.972;12.794;2023-05-02T17:02:04;15.30;99.90
27759;DHT22;15148;48.972;12.794;2023-05-02T17:07:07;15.10;99.90
27759;DHT22;15148;48.972;12.794;2023-05-02T17:12:10;15.10;99.90
27759;DHT22;15148;48.972;12.794;2023-05-02T17:17:12;15.00;99.90
27759;DHT22;15148;48.972;12.794;2023-05-02T17:22:14;14.70;99.90
27759;DHT22;15148;48.972;12.794;2023-05-02T17:27:16;14.60;99.90
27759;DHT22;15148;48.972;12.794;2023-05-02T17:32:18;14.50;99.90
27759;DHT22;15148;48.972;12.794;2023-05-02T17:37:20;14.50;99.90
27759;DHT22;15148;48.972;12.794;2023-05-02T17:42:22;14.40;99.90
27759;DHT22;15148;48.972;12.794;2023-05-02T17:47:24;14.30;99.90
27759;DHT22;15148;48.972;12.794;2023-05-02T17:52:26;14.30;99.90
27759;DHT22;15148;48.972;12.794;2023-05-02T17:57:28;14.10;99.90
27759;DHT22;15148;48.972;12.794;2023-05-02T18:02:29;13.90;99.90
27759;DHT22;15148;48.972;12.794;2023-05-02T18:07:31;13.80;99.90
27759;DHT22;15148;48.972;12.794;2023-05-02T18:12:33;13.80;99.90
27759;DHT22;15148;48.972;12.794;2023-05-02T18:17:35;13.70;99.90
27759;DHT22;15148;48.972;12.794;2023-05-02T18:22:38;13.50;99.90
27759;DHT22;15148;48.972;12.794;2023-05-02T18:27:40;13.50;99.90
27759;DHT22;15148;48.972;12.794;2023-05-02T18:32:42;13.40;99.90
27759;DHT22;15148;48.972;12.794;2023-05-02T18:37:44;13.30;99.90
27759;DHT22;15148;48.972;12.794;2023-05-02T18:42:46;13.30;99.90
27759;DHT22;15148;48.972;12.794;2023-05-02T18:47:48;13.20;99.90
27759;DHT22;15148;48.972;12.794;2023-05-02T18:52:52;13.00;99.90
27759;DHT22;15148;48.972;12.794;2023-05-02T18:57:53;12.90;99.90
27759;DHT22;15148;48.972;12.794;2023-05-02T19:02:55;12.80;99.90
27759;DHT22;15148;48.972;12.794;2023-05-02T19:07:57;12.70;99.90
27759;DHT22;15148;48.972;12.794;2023-05-02T19:13:00;12.70;99.90
27759;DHT22;15148;48.972;12.794;2023-05-02T19:18:02;12.60;99.90
27759;DHT22;15148;48.972;12.794;2023-05-02T19:23:04;12.60;99.90
27759;DHT22;15148;48.972;12.794;2023-05-02T19:28:20;12.50;99.90
27759;DHT22;15148;48.972;12.794;2023-05-02T19:33:23;12.60;99.90
27759;DHT22;15148;48.972;12.794;2023-05-02T19:38:25;12.50;99.90
27759;DHT22;15148;48.972;12.794;2023-05-02T19:43:27;12.40;99.90
27759;DHT22;15148;48.972;12.794;2023-05-02T19:48:28;12.20;99.90
27759;DHT22;15148;48.972;12.794;2023-05-02T19:53:31;12.20;99.90
27759;DHT22;15148;48.972;12.794;2023-05-02T19:58:33;12.20;99.90
27759;DHT22;15148;48.972;12.794;2023-05-02T20:03:35;12.20;99.90
27759;DHT22;15148;48.972;12.794;2023-05-02T20:08:37;12.10;99.90
27759;DHT22;15148;48.972;12.794;2023-05-02T20:13:39;11.90;99.90
27759;DHT22;15148;48.972;12.794;2023-05-02T20:18:41;11.80;99.90
27759;DHT22;15148;48.972;12.794;2023-05-02T20:23:43;11.80;99.90
27759;DHT22;15148;48.972;12.794;2023-05-02T20:28:45;11.80;99.90
27759;DHT22;15148;48.972;12.794;2023-05-02T20:33:47;11.70;99.90
27759;DHT22;15148;48.972;12.794;2023-05-02T20:38:49;11.80;99.90
27759;DHT22;15148;48.972;12.794;2023-05-02T20:43:54;11.80;99.90
27759;DHT22;15148;48.972;12.794;2023-05-02T20:48:57;11.50;99.90
27759;DHT22;15148;48.972;12.794;2023-05-02T20:54:00;11.40;99.90
27759;DHT22;15148;48.972;12.794;2023-05-02T20:59:01;11.40;99.90
27759;DHT22;15148;48.972;12.794;2023-05-02T21:04:03;11.50;99.90
27759;DHT22;15148;48.972;12.794;2023-05-02T21:09:06;11.50;99.90
27759;DHT22;15148;48.972;12.794;2023-05-02T21:14:09;11.50;99.90
27759;DHT22;15148;48.972;12.794;2023-05-02T21:19:12;11.40;99.90
27759;DHT22;15148;48.972;12.794;2023-05-02T21:24:14;11.30;99.90
27759;DHT22;15148;48.972;12.794;2023-05-02T21:29:16;11.40;99.90
27759;DHT22;15148;48.972;12.794;2023-05-02T21:34:17;11.40;99.90
27759;DHT22;15148;48.972;12.794;2023-05-02T21:39:19;11.40;99.90
27759;DHT22;15148;48.972;12.794;2023-05-02T21:44:21;11.40;99.90
27759;DHT22;15148;48.972;12.794;2023-05-02T21:49:23;11.30;99.90
27759;DHT22;15148;48.972;12.794;2023-05-02T21:54:25;11.30;99.90
27759;DHT22;15148;48.972;12.794;2023-05-02T21:59:27;11.30;99.90
27759;DHT22;15148;48.972;12.794;2023-05-02T22:04:28;11.40;99.90
27759;DHT22;15148;48.972;12.794;2023-05-02T22:09:30;11.40;99.90
27759;DHT22;15148;48.972;12.794;2023-05-02T22:14:34;11.40;99.90
27759;DHT22;15148;48.972;12.794;2023-05-02T22:19:49;11.30;99.90
27759;DHT22;15148;48.972;12.794;2023-05-02T22:24:52;11.30;99.90
27759;DHT22;15148;48.972;12.794;2023-05-02T22:29:54;11.30;99.90
27759;DHT22;15148;48.972;12.794;2023-05-02T22:34:56;11.40;99.90
27759;DHT22;15148;48.972;12.794;2023-05-02T22:39:58;11.40;99.90
27759;DHT22;15148;48.972;12.794;2023-05-02T22:45:01;11.40;99.90
27759;DHT22;15148;48.972;12.794;2023-05-02T22:50:03;11.40;99.90
27759;DHT22;15148;48.972;12.794;2023-05-02T22:55:06;11.30;99.90
27759;DHT22;15148;48.972;12.794;2023-05-02T23:00:10;11.40;99.90
27759;DHT22;15148;48.972;12.794;2023-05-02T23:05:12;11.40;99.90
27759;DHT22;15148;48.972;12.794;2023-05-02T23:10:14;11.40;99.90
27759;DHT22;15148;48.972;12.794;2023-05-02T23:15:16;11.40;99.90
27759;DHT22;15148;48.972;12.794;2023-05-02T23:20:19;11.40;99.90
27759;DHT22;15148;48.972;12.794;2023-05-02T23:25:25;11.40;99.90
27759;DHT22;15148;48.972;12.794;2023-05-02T23:30:28;11.40;99.90
27759;DHT22;15148;48.972;12.794;2023-05-02T23:35:32;11.40;99.90
27759;DHT22;15148;48.972;12.794;2023-05-02T23:40:34;11.30;99.90
27759;DHT22;15148;48.972;12.794;2023-05-02T23:45:36;11.40;99.90
27759;DHT22;15148;48.972;12.794;2023-05-02T23:50:37;11.40;99.90
27759;DHT22;15148;48.972;12.794;2023-05-02T23:55:39;11.40;99.90
